Time;durP1;ratioP1;P1;durP2;ratioP2;P2;SDS_P1;SDS_P2;PMS_P1;PMS_P2;Temp;Humidity;BMP_temperature;BMP_pressure;BME280_temperature;BME280_humidity;BME280_pressure;Samples;Min_cycle;Max_cycle;Signal;HPM_P1;HPM_P2
2022/01/29 00:00:28;;;;;;;55.08;33.40;;;7.10;99.90;;;;;;5076312;28;20207;-81
2022/01/29 00:02:55;;;;;;;54.35;32.53;;;7.20;99.90;;;;;;5085669;28;20216;-81
2022/01/29 00:05:22;;;;;;;52.03;33.70;;;7.00;99.90;;;;;;5074038;28;20200;-79
2022/01/29 00:07:49;;;;;;;61.70;34.20;;;7.00;99.90;;;;;;5083637;28;20897;-82
2022/01/29 00:10:17;;;;;;;55.25;33.63;;;7.00;99.90;;;;;;5073703;28;20233;-79
2022/01/29 00:12:44;;;;;;;55.75;35.83;;;7.00;99.90;;;;;;5077083;28;20201;-79
2022/01/29 00:15:12;;;;;;;70.43;37.80;;;7.00;99.90;;;;;;5073595;28;20225;-80
2022/01/29 00:17:39;;;;;;;64.93;36.35;;;7.10;99.90;;;;;;5079934;28;20721;-81
2022/01/29 00:20:07;;;;;;;65.95;36.17;;;7.00;99.90;;;;;;5071952;28;20210;-81
2022/01/29 00:22:34;;;;;;;63.95;37.85;;;7.00;99.90;;;;;;5074995;28;20207;-80
2022/01/29 00:25:01;;;;;;;68.22;40.40;;;7.10;99.90;;;;;;5063457;28;20202;-80
2022/01/29 00:27:33;;;;;;;69.82;37.92;;;7.00;99.90;;;;;;5070845;28;20295;-79
2022/01/29 00:30:03;;;;;;;59.17;36.70;;;7.00;99.90;;;;;;5073277;28;20216;-79
2022/01/29 00:32:30;;;;;;;64.53;39.03;;;7.00;99.90;;;;;;5075102;28;20233;-78
2022/01/29 00:34:57;;;;;;;62.08;38.83;;;7.10;99.90;;;;;;5080550;28;20267;-80
2022/01/29 00:37:24;;;;;;;71.18;40.65;;;7.10;99.90;;;;;;5078708;28;20298;-80
2022/01/29 00:39:51;;;;;;;63.97;38.60;;;7.10;99.90;;;;;;5064806;28;20293;-81
2022/01/29 00:42:18;;;;;;;67.20;37.40;;;7.10;99.90;;;;;;5063074;28;20322;-80
2022/01/29 00:44:47;;;;;;;55.17;35.15;;;7.10;99.90;;;;;;5080863;28;20293;-80
2022/01/29 00:47:14;;;;;;;64.53;37.80;;;7.20;99.90;;;;;;5084187;28;20522;-79
2022/01/29 00:49:41;;;;;;;77.00;39.63;;;7.10;99.90;;;;;;5078944;28;20242;-79
2022/01/29 00:54:49;;;;;;;69.72;38.90;;;7.20;99.90;;;;;;5053990;28;20221;-80
2022/01/29 00:57:16;;;;;;;64.40;37.38;;;7.20;99.90;;;;;;5064814;28;20258;-80
2022/01/29 00:59:43;;;;;;;82.25;40.42;;;7.20;99.90;;;;;;5071605;28;20206;-80
2022/01/29 01:02:11;;;;;;;66.95;37.63;;;7.20;99.90;;;;;;5078095;28;20569;-82
2022/01/29 01:04:39;;;;;;;78.22;39.78;;;7.20;99.90;;;;;;5081215;28;20205;-78
2022/01/29 01:07:07;;;;;;;68.82;40.30;;;7.20;99.90;;;;;;5076639;28;20658;-80
2022/01/29 01:09:34;;;;;;;72.28;38.30;;;7.20;99.90;;;;;;5068164;28;20274;-79
2022/01/29 01:12:01;;;;;;;77.47;39.83;;;7.20;99.90;;;;;;5050591;28;20513;-80
2022/01/29 01:14:28;;;;;;;77.63;42.22;;;7.10;99.90;;;;;;5062360;28;20301;-80
2022/01/29 01:16:55;;;;;;;75.68;43.55;;;7.10;99.90;;;;;;5075036;28;20227;-78
2022/01/29 01:19:25;;;;;;;81.93;47.25;;;7.20;99.90;;;;;;5077214;28;20204;-80
2022/01/29 01:21:53;;;;;;;81.68;43.75;;;7.10;99.90;;;;;;5069733;28;20206;-81
2022/01/29 01:24:20;;;;;;;88.18;41.75;;;7.10;99.90;;;;;;5077124;28;20205;-77
2022/01/29 01:26:47;;;;;;;78.70;42.60;;;7.10;99.90;;;;;;5065051;28;20291;-79
2022/01/29 01:29:13;;;;;;;76.00;44.88;;;7.10;99.90;;;;;;5079626;28;20210;-76
2022/01/29 01:31:43;;;;;;;83.60;40.97;;;7.10;99.90;;;;;;5089823;28;20197;-77
2022/01/29 01:34:10;;;;;;;95.00;44.13;;;7.20;99.90;;;;;;5095948;28;20204;-77
2022/01/29 01:36:44;;;;;;;85.45;44.40;;;7.10;99.90;;;;;;5082056;28;20214;-78
2022/01/29 01:39:14;;;;;;;94.32;47.03;;;7.10;99.90;;;;;;5096830;28;20225;-78
2022/01/29 01:41:51;;;;;;;100.25;48.78;;;7.10;99.90;;;;;;5088562;28;20218;-78
2022/01/29 01:44:18;;;;;;;90.53;43.47;;;7.00;99.90;;;;;;5074708;28;20220;-78
2022/01/29 01:46:45;;;;;;;88.53;47.50;;;7.00;99.90;;;;;;5081260;28;20202;-77
2022/01/29 01:49:14;;;;;;;86.85;49.42;;;7.00;99.90;;;;;;5076206;28;20206;-77
2022/01/29 01:51:42;;;;;;;87.18;43.95;;;7.00;99.90;;;;;;5080167;28;20183;-78
2022/01/29 01:54:09;;;;;;;104.30;51.70;;;7.00;99.90;;;;;;5084127;28;20195;-77
2022/01/29 01:56:36;;;;;;;102.75;46.83;;;7.00;99.90;;;;;;5077693;28;20266;-77
2022/01/29 01:59:03;;;;;;;104.43;49.50;;;7.00;99.90;;;;;;5064553;28;20227;-78
2022/01/29 02:01:30;;;;;;;110.60;48.45;;;7.00;99.90;;;;;;5077874;28;20212;-79
2022/01/29 02:03:56;;;;;;;96.05;44.97;;;7.00;99.90;;;;;;5097748;28;20218;-78
2022/01/29 02:06:23;;;;;;;100.82;49.95;;;7.00;99.90;;;;;;5089137;28;20193;-78
2022/01/29 02:08:58;;;;;;;99.03;47.63;;;6.90;99.90;;;;;;5087622;28;20231;-78
2022/01/29 02:11:25;;;;;;;103.15;48.83;;;6.90;99.90;;;;;;5087690;28;20248;-78
2022/01/29 02:13:52;;;;;;;118.45;51.85;;;6.90;99.90;;;;;;5074782;28;20188;-80
2022/01/29 02:16:18;;;;;;;96.65;48.08;;;6.90;99.90;;;;;;5084820;28;20240;-78
2022/01/29 02:18:45;;;;;;;107.68;46.38;;;6.90;99.90;;;;;;5087400;28;20234;-78
2022/01/29 02:21:13;;;;;;;95.40;48.70;;;6.90;99.90;;;;;;5096178;28;20182;-79
2022/01/29 02:23:41;;;;;;;88.90;45.78;;;6.90;99.90;;;;;;5073332;28;20189;-77
2022/01/29 02:26:08;;;;;;;103.60;50.58;;;6.90;99.90;;;;;;5083219;28;20221;-79
2022/01/29 02:28:34;;;;;;;104.20;50.85;;;6.90;99.90;;;;;;5093756;28;20222;-78
2022/01/29 02:31:03;;;;;;;106.20;52.13;;;7.00;99.90;;;;;;5079831;28;20190;-79
2022/01/29 02:33:31;;;;;;;113.90;52.60;;;7.00;99.90;;;;;;5084384;28;20209;-80
2022/01/29 02:35:59;;;;;;;90.97;45.90;;;7.00;99.90;;;;;;5082306;28;20225;-79
2022/01/29 02:38:27;;;;;;;111.95;52.28;;;6.90;99.90;;;;;;5072075;28;20253;-78
2022/01/29 02:41:00;;;;;;;121.47;47.72;;;6.90;99.90;;;;;;5084941;28;20203;-80
2022/01/29 02:43:31;;;;;;;116.63;51.65;;;6.90;99.90;;;;;;5087746;28;20274;-79
2022/01/29 02:46:05;;;;;;;110.72;49.05;;;6.90;99.90;;;;;;5070702;28;20267;-79
2022/01/29 02:48:32;;;;;;;105.63;51.70;;;7.00;99.90;;;;;;5075189;28;20229;-79
2022/01/29 02:50:58;;;;;;;96.85;51.30;;;7.00;99.90;;;;;;5076899;28;20233;-80
2022/01/29 02:53:25;;;;;;;88.93;46.30;;;7.00;99.90;;;;;;5075381;28;20213;-79
2022/01/29 02:55:52;;;;;;;131.13;52.90;;;7.00;99.90;;;;;;5072820;28;20261;-78
2022/01/29 02:58:20;;;;;;;113.30;53.70;;;7.00;99.90;;;;;;5070035;28;20226;-79
2022/01/29 03:00:47;;;;;;;112.93;53.22;;;7.00;99.90;;;;;;5070805;28;20282;-78
2022/01/29 03:03:14;;;;;;;88.55;45.75;;;6.90;99.90;;;;;;5065225;28;20191;-80
2022/01/29 03:05:41;;;;;;;106.20;49.15;;;7.00;99.90;;;;;;5071157;28;20298;-80
2022/01/29 03:08:08;;;;;;;94.40;48.30;;;6.90;99.90;;;;;;5077084;28;20230;-79
2022/01/29 03:10:35;;;;;;;103.55;53.63;;;6.90;99.90;;;;;;5088413;28;20194;-78
2022/01/29 03:13:02;;;;;;;113.88;52.35;;;6.90;99.90;;;;;;5071854;28;20223;-79
2022/01/29 03:15:30;;;;;;;103.70;50.08;;;6.90;99.90;;;;;;5075918;28;20241;-78
2022/01/29 03:17:57;;;;;;;92.50;47.65;;;6.90;99.90;;;;;;5229938;22;20298;-71
2022/01/29 03:20:24;;;;;;;100.22;47.15;;;7.00;99.90;;;;;;5092769;28;20243;-74
2022/01/29 03:22:51;;;;;;;107.15;49.55;;;7.00;99.90;;;;;;5096678;28;20300;-73
2022/01/29 03:25:18;;;;;;;89.35;45.40;;;7.00;99.90;;;;;;5097379;28;20251;-73
2022/01/29 03:27:45;;;;;;;101.60;44.40;;;7.00;99.90;;;;;;5099532;28;20248;-72
2022/01/29 03:30:13;;;;;;;98.38;48.13;;;7.00;99.90;;;;;;5099251;28;20259;-75
2022/01/29 03:32:41;;;;;;;93.40;47.72;;;7.00;99.90;;;;;;5094691;28;20307;-74
2022/01/29 03:35:09;;;;;;;90.80;44.03;;;7.00;99.90;;;;;;5094209;28;20200;-74
2022/01/29 03:37:37;;;;;;;95.60;45.63;;;7.00;99.90;;;;;;5077356;28;20253;-73
2022/01/29 03:40:08;;;;;;;86.68;45.22;;;7.00;99.90;;;;;;5095138;28;20209;-73
2022/01/29 03:42:39;;;;;;;81.40;42.63;;;7.00;99.90;;;;;;5095051;28;20324;-73
2022/01/29 03:45:08;;;;;;;89.93;47.80;;;7.10;99.90;;;;;;5096365;28;20205;-73
2022/01/29 03:47:43;;;;;;;75.65;38.63;;;7.10;99.90;;;;;;5096494;28;20196;-72
2022/01/29 03:50:10;;;;;;;89.97;42.60;;;7.10;99.90;;;;;;5091186;28;20236;-73
2022/01/29 03:52:37;;;;;;;83.22;43.92;;;7.10;99.90;;;;;;5095441;28;20220;-72
2022/01/29 03:55:05;;;;;;;77.32;42.60;;;7.10;99.90;;;;;;5103649;28;20205;-73
2022/01/29 03:57:32;;;;;;;84.13;39.28;;;7.20;99.90;;;;;;5095470;28;20713;-74
2022/01/29 04:00:01;;;;;;;77.30;40.08;;;7.20;99.90;;;;;;5094574;28;20255;-73
2022/01/29 04:02:28;;;;;;;77.82;38.05;;;7.20;99.90;;;;;;5096577;28;20690;-73
2022/01/29 04:04:56;;;;;;;69.40;39.88;;;7.20;99.90;;;;;;5106069;28;20205;-72
2022/01/29 04:07:24;;;;;;;69.70;38.20;;;7.20;99.90;;;;;;5097886;28;20194;-75
2022/01/29 04:09:52;;;;;;;80.00;40.63;;;7.30;99.90;;;;;;5106423;28;20230;-73
2022/01/29 04:12:19;;;;;;;72.97;38.15;;;7.20;99.90;;;;;;5096915;28;20221;-73
2022/01/29 04:14:46;;;;;;;68.25;40.67;;;7.30;99.90;;;;;;5094920;28;20205;-74
2022/01/29 04:17:13;;;;;;;72.15;39.33;;;7.30;99.90;;;;;;5094944;28;20244;-72
2022/01/29 04:19:40;;;;;;;63.67;39.15;;;7.40;99.90;;;;;;5075734;28;20320;-77
2022/01/29 04:22:09;;;;;;;70.15;37.40;;;7.40;99.90;;;;;;5093138;28;20221;-75
2022/01/29 04:24:36;;;;;;;80.53;42.03;;;7.40;99.90;;;;;;5094386;28;20595;-74
2022/01/29 04:27:14;;;;;;;81.78;40.40;;;7.40;99.90;;;;;;5100235;28;20262;-75
2022/01/29 04:29:52;;;;;;;80.38;44.53;;;7.40;99.90;;;;;;5075825;28;20297;-73
2022/01/29 04:32:25;;;;;;;69.88;40.30;;;7.40;99.90;;;;;;5103779;28;20233;-72
2022/01/29 04:34:52;;;;;;;81.18;40.95;;;7.40;99.90;;;;;;5091707;28;20681;-74
2022/01/29 04:37:21;;;;;;;87.85;40.53;;;7.40;99.90;;;;;;5087061;28;20699;-73
2022/01/29 04:39:47;;;;;;;78.72;39.17;;;7.50;99.90;;;;;;5088576;28;20331;-75
2022/01/29 04:42:14;;;;;;;80.93;37.90;;;7.50;99.90;;;;;;5094382;28;20261;-74
2022/01/29 04:44:41;;;;;;;78.15;40.63;;;7.40;99.90;;;;;;5094503;28;20205;-76
2022/01/29 04:47:08;;;;;;;79.07;40.67;;;7.40;99.90;;;;;;5094527;28;20268;-74
2022/01/29 04:49:35;;;;;;;89.05;40.60;;;7.40;99.90;;;;;;5093469;28;20258;-74
2022/01/29 04:52:02;;;;;;;76.20;41.50;;;7.50;99.90;;;;;;5093309;28;20225;-73
2022/01/29 04:54:31;;;;;;;77.05;41.40;;;7.50;99.90;;;;;;5085006;28;20271;-76
2022/01/29 04:56:58;;;;;;;81.40;41.75;;;7.40;99.90;;;;;;5093757;28;20296;-75
2022/01/29 04:59:24;;;;;;;82.05;41.40;;;7.50;99.90;;;;;;5092641;28;20201;-73
2022/01/29 05:01:51;;;;;;;85.75;38.45;;;7.50;99.90;;;;;;5093109;28;20240;-73
2022/01/29 05:04:19;;;;;;;83.90;41.72;;;7.60;99.90;;;;;;5093997;28;20664;-74
2022/01/29 05:06:45;;;;;;;79.30;39.95;;;7.50;99.90;;;;;;5094102;28;20217;-75
2022/01/29 05:09:12;;;;;;;84.50;40.28;;;7.50;99.90;;;;;;5098914;28;20579;-72
2022/01/29 05:11:43;;;;;;;98.35;42.40;;;7.50;99.90;;;;;;5096636;28;20584;-74
2022/01/29 05:14:17;;;;;;;92.00;40.60;;;7.60;99.90;;;;;;5098537;28;20205;-74
2022/01/29 05:17:16;;;;;;;77.20;39.13;;;7.60;99.90;;;;;;5081636;28;20294;-73
2022/01/29 05:27:46;;;;;;;79.15;40.90;;;7.60;99.90;;;;;;5093763;28;20208;-75
2022/01/29 05:30:13;;;;;;;85.50;40.90;;;7.60;99.90;;;;;;5094862;28;20233;-73
2022/01/29 05:32:40;;;;;;;72.85;40.03;;;7.60;99.90;;;;;;5091161;28;20271;-73
2022/01/29 05:35:07;;;;;;;73.45;39.80;;;7.60;99.90;;;;;;5087803;28;20237;-75
2022/01/29 05:37:34;;;;;;;85.18;42.28;;;7.70;99.90;;;;;;5091676;28;20264;-73
2022/01/29 05:40:02;;;;;;;79.57;41.22;;;7.70;99.90;;;;;;5084355;28;20278;-76
2022/01/29 05:42:31;;;;;;;76.70;38.55;;;7.70;99.90;;;;;;5093154;28;20676;-74
2022/01/29 05:44:59;;;;;;;74.50;38.33;;;7.80;99.90;;;;;;5093644;28;20205;-74
2022/01/29 05:47:26;;;;;;;72.72;37.92;;;7.80;99.90;;;;;;5097216;28;20304;-72
2022/01/29 05:49:53;;;;;;;84.28;41.67;;;7.80;99.90;;;;;;5096250;28;20233;-73
2022/01/29 05:52:20;;;;;;;75.18;41.83;;;7.80;99.90;;;;;;5094526;28;20279;-73
2022/01/29 05:54:47;;;;;;;62.60;38.80;;;7.80;99.90;;;;;;5098663;28;20635;-71
2022/01/29 05:57:14;;;;;;;91.90;41.67;;;7.80;99.90;;;;;;5096544;28;20283;-74
2022/01/29 05:59:40;;;;;;;84.88;40.50;;;7.90;99.90;;;;;;5092700;28;20237;-73
2022/01/29 06:02:09;;;;;;;72.47;36.95;;;7.90;99.90;;;;;;5092996;28;20775;-74
2022/01/29 06:04:36;;;;;;;73.40;38.95;;;7.90;99.90;;;;;;5093855;28;20320;-75
2022/01/29 06:07:03;;;;;;;82.00;42.15;;;7.90;99.90;;;;;;5093200;28;20277;-75
2022/01/29 06:09:30;;;;;;;76.38;37.47;;;7.90;99.90;;;;;;5098308;28;20202;-73
2022/01/29 06:11:57;;;;;;;70.18;37.25;;;7.90;99.90;;;;;;5091862;28;20349;-76
2022/01/29 06:14:24;;;;;;;75.65;37.25;;;7.90;99.90;;;;;;5089333;28;20241;-73
2022/01/29 06:16:51;;;;;;;68.80;36.47;;;7.90;99.90;;;;;;5092780;28;20698;-73
2022/01/29 06:19:19;;;;;;;70.38;36.78;;;8.00;99.90;;;;;;5092690;28;20295;-73
2022/01/29 06:21:46;;;;;;;71.75;36.67;;;8.10;99.90;;;;;;5092502;28;20250;-74
2022/01/29 06:24:13;;;;;;;67.65;35.55;;;8.00;99.90;;;;;;5093210;28;20205;-73
2022/01/29 06:26:39;;;;;;;66.35;33.88;;;8.00;99.90;;;;;;5102691;28;20271;-73
2022/01/29 06:29:06;;;;;;;82.38;37.72;;;8.00;99.90;;;;;;5089328;28;20281;-73
2022/01/29 06:31:33;;;;;;;67.85;35.85;;;8.00;99.90;;;;;;5091813;28;20313;-73
2022/01/29 06:34:00;;;;;;;72.63;35.80;;;8.00;99.90;;;;;;5100379;28;20293;-72
2022/01/29 06:36:29;;;;;;;58.38;33.30;;;8.00;99.90;;;;;;5092417;28;20286;-74
2022/01/29 06:38:56;;;;;;;73.75;38.80;;;8.00;99.90;;;;;;5092087;28;20245;-72
2022/01/29 06:41:23;;;;;;;71.20;38.00;;;8.00;99.90;;;;;;5091997;28;20226;-74
2022/01/29 06:43:50;;;;;;;74.45;39.15;;;8.00;99.90;;;;;;5088719;28;20209;-73
2022/01/29 06:46:17;;;;;;;64.30;35.53;;;7.90;99.90;;;;;;5092564;28;20576;-74
2022/01/29 06:48:44;;;;;;;65.40;34.97;;;8.00;99.90;;;;;;5092091;28;20203;-78
2022/01/29 06:51:11;;;;;;;63.50;33.85;;;8.00;99.90;;;;;;5091738;28;20236;-77
2022/01/29 06:53:40;;;;;;;68.60;35.58;;;7.90;99.90;;;;;;5091989;28;20237;-76
2022/01/29 06:56:07;;;;;;;60.35;31.42;;;7.90;99.90;;;;;;5095536;28;20203;-74
2022/01/29 06:58:36;;;;;;;69.32;32.17;;;7.90;99.90;;;;;;5096852;28;20536;-73
2022/01/29 07:01:03;;;;;;;59.40;34.05;;;8.00;99.90;;;;;;5094955;28;20203;-73
2022/01/29 07:03:30;;;;;;;66.78;34.10;;;7.90;99.90;;;;;;5108832;28;20186;-72
2022/01/29 07:05:57;;;;;;;57.15;28.60;;;8.00;99.90;;;;;;5100966;28;20194;-72
2022/01/29 07:08:24;;;;;;;56.25;29.20;;;8.00;99.90;;;;;;5098823;28;20280;-73
2022/01/29 07:10:53;;;;;;;57.80;28.33;;;8.00;99.90;;;;;;5098283;28;20189;-74
2022/01/29 07:13:20;;;;;;;49.38;28.88;;;8.00;99.90;;;;;;5098719;28;20658;-76
2022/01/29 07:15:47;;;;;;;48.67;25.80;;;8.00;99.90;;;;;;5096674;28;20214;-74
2022/01/29 07:18:14;;;;;;;47.25;24.83;;;8.00;99.90;;;;;;5095073;28;20254;-75
2022/01/29 07:20:41;;;;;;;40.90;23.33;;;8.00;99.90;;;;;;5077682;28;20242;-74
2022/01/29 07:23:08;;;;;;;41.42;24.30;;;8.00;99.90;;;;;;5079019;28;20275;-73
2022/01/29 07:25:35;;;;;;;45.88;23.95;;;8.00;99.90;;;;;;5078407;28;20673;-73
2022/01/29 07:28:06;;;;;;;46.03;22.88;;;8.00;99.90;;;;;;5078753;28;20207;-74
2022/01/29 07:30:33;;;;;;;34.90;23.25;;;8.10;99.90;;;;;;5080429;28;20210;-74
2022/01/29 07:33:00;;;;;;;38.63;21.17;;;8.10;99.90;;;;;;5072752;28;20254;-75
2022/01/29 07:35:27;;;;;;;35.58;21.20;;;8.20;99.90;;;;;;5078640;28;20210;-75
2022/01/29 07:37:54;;;;;;;40.33;24.00;;;8.20;99.90;;;;;;5085043;28;20272;-75
2022/01/29 07:40:21;;;;;;;33.70;20.05;;;8.20;99.90;;;;;;5078195;28;20512;-76
2022/01/29 07:42:48;;;;;;;35.47;21.02;;;8.30;99.90;;;;;;5080880;28;20222;-72
2022/01/29 07:45:16;;;;;;;32.55;19.90;;;8.30;99.90;;;;;;5079584;28;20489;-76
2022/01/29 07:47:43;;;;;;;34.08;18.73;;;8.30;99.90;;;;;;5075392;28;20195;-75
2022/01/29 07:50:11;;;;;;;33.97;20.33;;;8.30;99.90;;;;;;5078386;28;20199;-75
2022/01/29 07:52:39;;;;;;;39.47;22.02;;;8.30;99.90;;;;;;5078054;28;20226;-75
2022/01/29 07:55:07;;;;;;;34.97;19.10;;;8.30;99.90;;;;;;5078229;28;20242;-75
2022/01/29 07:57:34;;;;;;;33.53;19.13;;;8.30;99.90;;;;;;5077831;28;20222;-77
2022/01/29 08:00:01;;;;;;;36.85;22.77;;;8.40;99.90;;;;;;5077384;28;20202;-74
2022/01/29 08:02:31;;;;;;;31.33;19.05;;;8.50;99.90;;;;;;5077050;28;20348;-73
2022/01/29 08:04:58;;;;;;;32.17;20.45;;;8.50;99.90;;;;;;5074907;28;20210;-74
2022/01/29 08:07:25;;;;;;;33.67;21.27;;;8.50;99.90;;;;;;5071536;28;20210;-73
2022/01/29 08:09:52;;;;;;;32.78;20.08;;;8.50;99.90;;;;;;5075628;28;20214;-74
2022/01/29 08:12:19;;;;;;;31.35;19.60;;;8.60;99.90;;;;;;5077934;28;20268;-76
2022/01/29 08:14:46;;;;;;;30.75;19.67;;;8.60;99.90;;;;;;5076613;28;20280;-73
2022/01/29 08:17:13;;;;;;;33.55;20.40;;;8.50;99.90;;;;;;5077543;28;20211;-79
2022/01/29 08:19:41;;;;;;;37.10;22.15;;;8.50;99.90;;;;;;5092386;28;20634;-74
2022/01/29 08:22:09;;;;;;;25.65;17.75;;;8.50;99.90;;;;;;5097422;28;20643;-75
2022/01/29 08:24:35;;;;;;;33.42;20.25;;;8.50;99.90;;;;;;5106497;28;20191;-76
2022/01/29 08:27:06;;;;;;;34.78;19.60;;;8.60;99.90;;;;;;5098287;28;20267;-73
2022/01/29 08:29:33;;;;;;;30.63;20.35;;;8.60;99.90;;;;;;5097451;28;20291;-73
2022/01/29 08:32:00;;;;;;;28.65;18.80;;;8.50;99.90;;;;;;5097717;28;20257;-74
2022/01/29 08:34:28;;;;;;;28.27;19.95;;;8.50;99.90;;;;;;5097374;28;20198;-74
2022/01/29 08:36:58;;;;;;;25.23;16.88;;;8.60;99.90;;;;;;5097311;28;20206;-75
2022/01/29 08:39:25;;;;;;;27.15;19.48;;;8.60;99.90;;;;;;5098786;28;20231;-74
2022/01/29 08:41:52;;;;;;;26.52;16.92;;;8.70;99.90;;;;;;5114057;28;20237;-73
2022/01/29 08:44:19;;;;;;;26.27;18.05;;;8.60;99.90;;;;;;5091698;28;20316;-74
2022/01/29 08:46:51;;;;;;;31.63;19.17;;;8.60;99.90;;;;;;5103224;28;20302;-73
2022/01/29 08:49:19;;;;;;;25.25;17.50;;;8.60;99.90;;;;;;5106694;28;20504;-70
2022/01/29 08:51:47;;;;;;;34.38;21.17;;;8.70;99.90;;;;;;5110138;28;20274;-73
2022/01/29 08:54:16;;;;;;;26.73;18.30;;;8.70;99.90;;;;;;5097832;28;20206;-72
2022/01/29 08:56:44;;;;;;;26.88;17.10;;;8.80;99.90;;;;;;5097928;28;20226;-74
2022/01/29 08:59:12;;;;;;;19.98;16.10;;;8.80;99.90;;;;;;5107054;28;20213;-75
2022/01/29 09:01:39;;;;;;;25.10;17.08;;;8.80;99.90;;;;;;5097850;28;20246;-74
2022/01/29 09:04:06;;;;;;;25.45;18.60;;;8.80;99.90;;;;;;5103366;28;20193;-73
2022/01/29 09:06:33;;;;;;;28.98;18.35;;;8.80;99.90;;;;;;5098101;28;20199;-73
2022/01/29 09:09:00;;;;;;;28.75;18.92;;;8.80;99.90;;;;;;5096566;28;20551;-70
2022/01/29 09:11:28;;;;;;;32.20;20.40;;;8.80;99.90;;;;;;5095458;28;20257;-72
2022/01/29 09:13:55;;;;;;;32.78;18.50;;;8.80;99.90;;;;;;5096537;28;20255;-73
2022/01/29 09:16:22;;;;;;;23.85;16.95;;;8.80;99.90;;;;;;5094519;28;20291;-77
2022/01/29 09:18:50;;;;;;;27.88;17.95;;;8.80;99.90;;;;;;5118334;22;20261;-87
2022/01/29 09:21:31;;;;;;;28.67;19.77;;;8.90;99.90;;;;;;5088773;28;20210;-86
2022/01/29 09:24:00;;;;;;;29.30;21.98;;;8.70;99.90;;;;;;5092612;28;20206;-88
2022/01/29 09:26:29;;;;;;;24.92;16.52;;;8.90;99.90;;;;;;5091415;28;20212;-85
2022/01/29 09:28:56;;;;;;;26.42;18.15;;;9.00;99.90;;;;;;5106553;28;20210;-83
2022/01/29 09:31:24;;;;;;;27.48;18.08;;;9.00;99.90;;;;;;5121808;28;20227;-86
2022/01/29 09:33:54;;;;;;;24.15;17.13;;;9.10;99.90;;;;;;5114632;28;20216;-87
2022/01/29 09:36:43;;;;;;;25.40;19.00;;;9.00;99.90;;;;;;5113935;28;20257;-83
2022/01/29 09:39:10;;;;;;;23.25;16.90;;;9.00;99.90;;;;;;5111057;28;20289;-85
2022/01/29 09:41:44;;;;;;;20.85;15.73;;;9.20;99.90;;;;;;5112541;28;20202;-85
2022/01/29 09:44:12;;;;;;;21.38;15.95;;;9.10;99.90;;;;;;5112508;28;20224;-84
2022/01/29 09:46:40;;;;;;;27.38;16.02;;;9.20;99.90;;;;;;5127471;28;20185;-85
2022/01/29 09:49:08;;;;;;;23.27;16.02;;;9.20;99.90;;;;;;5109945;28;20222;-85
2022/01/29 09:51:38;;;;;;;17.35;12.45;;;9.20;99.90;;;;;;5110218;28;20191;-85
2022/01/29 09:54:06;;;;;;;19.75;13.70;;;9.30;99.90;;;;;;5112900;28;20214;-85
2022/01/29 09:56:46;;;;;;;15.57;12.15;;;9.30;99.90;;;;;;5093382;28;20559;-87
2022/01/29 09:59:16;;;;;;;25.67;15.00;;;9.30;99.90;;;;;;5089831;28;20222;-89
2022/01/29 10:04:50;;;;;;;19.73;14.23;;;9.40;99.90;;;;;;5090760;28;20183;-88
2022/01/29 10:07:35;;;;;;;16.38;13.52;;;9.40;99.90;;;;;;5086914;28;20202;-87
2022/01/29 10:10:26;;;;;;;15.32;12.85;;;9.30;99.90;;;;;;5077895;28;20203;-86
2022/01/29 10:16:31;;;;;;;14.77;11.75;;;9.30;99.90;;;;;;4983104;28;20209;-87
2022/01/29 10:19:06;;;;;;;13.00;10.80;;;9.60;99.90;;;;;;4995332;28;20233;-86
2022/01/29 10:21:35;;;;;;;15.02;11.95;;;9.60;99.90;;;;;;5010774;28;20204;-87
2022/01/29 10:24:21;;;;;;;16.13;12.50;;;9.60;99.90;;;;;;5045109;28;20235;-89
2022/01/29 10:27:14;;;;;;;15.45;13.30;;;9.70;99.90;;;;;;5088645;28;20439;-89
2022/01/29 10:59:57;;;;;;;18.35;11.43;;;9.60;99.90;;;;;;5036881;28;20660;-74
2022/01/29 11:02:27;;;;;;;16.45;12.73;;;9.60;99.90;;;;;;5039101;28;20263;-74
2022/01/29 11:04:55;;;;;;;17.05;12.07;;;9.60;99.90;;;;;;5032831;28;20286;-73
2022/01/29 11:07:27;;;;;;;18.08;12.55;;;9.60;99.90;;;;;;5038646;28;20240;-76
2022/01/29 11:09:55;;;;;;;14.43;12.95;;;9.70;99.90;;;;;;5037876;28;20279;-74
2022/01/29 11:12:24;;;;;;;13.63;10.55;;;9.70;99.90;;;;;;5038383;28;20224;-76
2022/01/29 11:14:55;;;;;;;14.73;11.20;;;9.80;99.90;;;;;;5037968;28;20270;-76
2022/01/29 11:17:25;;;;;;;13.98;10.77;;;9.80;99.90;;;;;;5038357;28;20247;-75
2022/01/29 11:19:54;;;;;;;13.10;10.65;;;9.90;99.90;;;;;;5037021;28;20330;-75
2022/01/29 11:22:24;;;;;;;13.50;11.00;;;9.90;99.90;;;;;;5038138;28;20256;-73
2022/01/29 11:24:57;;;;;;;12.77;11.48;;;9.90;99.90;;;;;;5036937;28;20208;-75
2022/01/29 11:27:26;;;;;;;13.32;9.73;;;10.00;99.90;;;;;;5020552;28;20226;-72
2022/01/29 11:30:01;;;;;;;12.95;11.65;;;10.00;99.90;;;;;;5028411;28;20200;-74
2022/01/29 11:32:40;;;;;;;11.18;9.80;;;10.00;99.90;;;;;;5039355;28;20661;-73
2022/01/29 11:35:13;;;;;;;13.40;10.57;;;10.10;99.90;;;;;;5050365;28;20196;-75
2022/01/29 11:38:01;;;;;;;11.90;9.80;;;10.10;99.90;;;;;;5039625;28;20630;-75
2022/01/29 11:40:32;;;;;;;11.32;9.98;;;10.10;99.90;;;;;;5029357;28;20571;-75
2022/01/29 11:43:25;;;;;;;13.68;10.07;;;10.10;99.90;;;;;;5037820;28;20310;-75
2022/01/29 11:45:56;;;;;;;13.23;10.18;;;10.10;99.90;;;;;;5038035;28;20292;-75
2022/01/29 11:51:54;;;;;;;15.50;9.98;;;10.20;99.90;;;;;;5034525;28;20235;-74
2022/01/29 11:54:27;;;;;;;8.65;7.35;;;10.20;99.90;;;;;;5033934;28;20200;-75
2022/01/29 11:57:15;;;;;;;8.55;7.40;;;10.20;99.90;;;;;;5027653;28;20193;-75
2022/01/29 11:59:43;;;;;;;8.75;6.95;;;10.30;99.90;;;;;;5036526;28;20240;-75
2022/01/29 12:02:43;;;;;;;8.48;7.15;;;10.30;99.90;;;;;;5037760;28;20255;-74
2022/01/29 12:05:14;;;;;;;8.40;6.40;;;10.40;99.90;;;;;;5037691;28;20205;-75
2022/01/29 12:08:09;;;;;;;8.35;5.75;;;10.40;99.90;;;;;;5037375;28;20216;-75
2022/01/29 12:10:39;;;;;;;7.85;6.15;;;10.40;99.90;;;;;;5037687;28;20204;-75
2022/01/29 12:13:12;;;;;;;7.70;6.55;;;10.40;99.90;;;;;;5037230;28;20229;-75
2022/01/29 12:15:39;;;;;;;8.68;5.47;;;10.50;99.90;;;;;;5037076;28;20205;-76
2022/01/29 12:18:40;;;;;;;6.70;5.35;;;10.50;99.90;;;;;;5036473;28;20229;-76
2022/01/29 12:21:08;;;;;;;5.82;5.15;;;10.50;99.90;;;;;;5037093;28;20230;-75
2022/01/29 12:23:49;;;;;;;8.07;5.75;;;10.50;99.90;;;;;;5036158;28;20219;-77
2022/01/29 12:26:21;;;;;;;10.85;5.03;;;10.60;99.90;;;;;;5037384;28;20212;-75
2022/01/29 12:28:50;;;;;;;8.63;4.32;;;10.60;99.90;;;;;;5037473;28;20236;-75
2022/01/29 12:31:18;;;;;;;8.18;5.90;;;10.70;99.90;;;;;;5036849;28;20232;-76
2022/01/29 12:33:45;;;;;;;10.38;6.55;;;10.70;99.90;;;;;;5037139;28;20208;-73
2022/01/29 12:36:14;;;;;;;6.65;4.32;;;10.70;99.90;;;;;;5037050;28;20215;-76
2022/01/29 12:38:44;;;;;;;9.88;3.90;;;10.80;99.90;;;;;;5037879;28;20836;-76
2022/01/29 12:41:14;;;;;;;6.20;4.28;;;10.70;99.90;;;;;;5037229;28;20248;-76
2022/01/29 12:43:52;;;;;;;10.77;3.92;;;10.80;99.90;;;;;;5043908;28;20287;-76
2022/01/29 12:46:21;;;;;;;6.95;4.45;;;10.80;99.90;;;;;;5038330;28;20196;-75
2022/01/29 12:49:00;;;;;;;5.40;3.80;;;10.90;99.90;;;;;;5040378;28;20240;-75
2022/01/29 12:51:29;;;;;;;10.98;3.83;;;10.90;99.90;;;;;;5036104;28;20501;-76
2022/01/29 12:53:57;;;;;;;4.45;3.88;;;10.80;99.90;;;;;;5037507;28;20257;-76
2022/01/29 12:56:30;;;;;;;5.30;4.05;;;10.90;99.90;;;;;;5028240;28;20287;-76
2022/01/29 12:59:00;;;;;;;10.88;4.28;;;10.80;99.90;;;;;;5033770;28;20235;-76
2022/01/29 13:01:27;;;;;;;7.13;4.30;;;10.80;99.90;;;;;;5030496;28;20267;-76
2022/01/29 13:04:02;;;;;;;11.68;4.40;;;10.80;99.90;;;;;;5038652;28;20210;-76
2022/01/29 13:06:30;;;;;;;5.15;4.38;;;10.80;99.90;;;;;;5038918;28;20232;-75
2022/01/29 13:09:12;;;;;;;8.20;4.15;;;10.90;99.90;;;;;;5036245;28;20293;-77
2022/01/29 13:11:40;;;;;;;9.43;4.03;;;10.90;99.90;;;;;;5032873;28;20276;-75
2022/01/29 13:14:12;;;;;;;5.82;3.95;;;10.90;99.90;;;;;;5036121;28;20244;-75
2022/01/29 13:16:39;;;;;;;4.93;4.25;;;10.90;99.90;;;;;;5036066;28;20205;-75
2022/01/29 13:19:08;;;;;;;7.13;4.30;;;10.90;99.90;;;;;;5036100;28;20212;-75
2022/01/29 13:21:37;;;;;;;6.38;3.90;;;11.00;99.90;;;;;;5035667;28;20225;-76
2022/01/29 13:24:33;;;;;;;11.43;4.60;;;11.00;99.90;;;;;;5039433;28;20607;-75
2022/01/29 13:27:03;;;;;;;6.10;3.45;;;11.10;99.90;;;;;;5034040;28;20211;-76
2022/01/29 13:29:35;;;;;;;8.45;3.95;;;11.10;99.90;;;;;;5034724;28;20613;-77
2022/01/29 13:32:02;;;;;;;6.05;3.20;;;11.00;99.90;;;;;;5030866;28;20229;-75
2022/01/29 13:34:31;;;;;;;6.70;3.33;;;11.00;99.90;;;;;;5042589;28;20603;-76
2022/01/29 13:37:00;;;;;;;6.18;4.45;;;11.10;99.90;;;;;;5036501;28;20205;-74
2022/01/29 13:39:29;;;;;;;8.60;4.30;;;11.10;99.90;;;;;;5036146;28;20220;-75